• Join FlightAware (Why Join?)
  • Login
  • US Flag 
11:07AM EDT


 

Airport Tracker/Info


-or-


 

Live Flight TrackerFlight Track Log ✈ GLA233 ✈ 15-Jul-2013 ✈ KPIR - KDEN

Flight Track Log - Related Links

Times and Time Zones

All times are in EDT time to prevent confusion due to time zone crossing. See the GLA233 flight status page for this flight to view local times or setup timezone preferences in your user account.

Time Position Orientation Groundspeed Altitude Reporting Facility
EDT Latitude Longitude Course Direction KTS MPH feet Rate Location/Type
07:51AM 44.3547 -100.2606 252° West 213 245 2,800  Level Minneapolis Center
07:52AM 44.3444 -100.3261 258° West 184 212 4,000 540 Climbing Minneapolis Center
07:53AM 44.3125 -100.3953 237° Southwest 212 244 4,000  Level Minneapolis Center
07:54AM 44.2725 -100.4675 232° Southwest 223 257 4,000 120 Level Minneapolis Center
07:55AM 44.2294 -100.5431 232° Southwest 235 270 4,300 720 Climbing Minneapolis Center
07:56AM 44.2519 -100.8307 252° West  Level FlightAware Approximate
07:56AM 44.1925 -100.6150 234° Southwest 235 270 5,500  Level Minneapolis Center
07:57AM 44.1500 -100.6936 233° Southwest 222 255 7,100 1,620 Climbing Minneapolis Center
07:58AM 44.1161 -100.7572 233° Southwest 214 246 8,800 1,440 Climbing Minneapolis Center
07:59AM 44.0833 -100.8197 234° Southwest 207 238 10,100 1,260 Climbing Minneapolis Center
08:00AM 44.0489 -100.8819 232° Southwest 204 235 11,400 1,140 Climbing Minneapolis Center
08:01AM 44.0133 -100.9481 233° Southwest 207 238 12,500 1,020 Climbing Minneapolis Center
08:02AM 43.9758 -101.0122 231° Southwest 211 243 13,600 1,020 Climbing Minneapolis Center
08:03AM 43.9383 -101.0786 232° Southwest 214 246 14,600 900 Climbing Minneapolis Center
08:04AM 43.9003 -101.1475 233° Southwest 218 251 15,500 780 Climbing Minneapolis Center
08:05AM 43.8611 -101.2142 231° Southwest 221 254 16,300 780 Climbing Minneapolis Center
08:06AM 43.8225 -101.2822 232° Southwest 225 259 17,100 720 Climbing Denver Center
08:07AM 43.7836 -101.3500 232° Southwest 225 259 17,700 540 Climbing Denver Center
08:08AM 43.7442 -101.4194 232° Southwest 227 261 18,300 540 Climbing Denver Center
08:09AM 43.7006 -101.4828 226° Southwest 227 261 18,900 540 Climbing Denver Center
08:10AM 43.6572 -101.5456 226° Southwest 227 261 19,400 480 Climbing Denver Center
08:11AM 43.6183 -101.6167 233° Southwest 229 264 19,900 600 Climbing Denver Center
08:12AM 43.5819 -101.6853 234° Southwest 223 257 20,700 660 Climbing Denver Center
08:13AM 43.5414 -101.7489 229° Southwest 222 255 21,300 600 Climbing Denver Center
08:14AM 43.5000 -101.8122 228° Southwest 222 255 22,000 600 Climbing Denver Center
08:15AM 43.4589 -101.8733 227° Southwest 220 253 22,600 600 Climbing Denver Center
08:16AM 43.4186 -101.9364 229° Southwest 219 252 23,300 660 Climbing Denver Center
08:17AM 43.3767 -101.9942 225° Southwest 214 246 24,000 300 Climbing Denver Center
08:18AM 43.3367 -102.0633 232° Southwest 227 261 24,000  Level Denver Center
08:19AM 43.2842 -102.1339 224° Southwest 237 273 24,000  Level Denver Center
08:20AM 43.2361 -102.1953 223° Southwest 245 282 24,000  Level Denver Center
08:21AM 43.1908 -102.2614 227° Southwest 248 285 24,000 -60 Level Denver Center
08:23AM 43.1369 -102.3367 226° Southwest 248 285 23,900  Descending Denver Center
08:24AM 43.0811 -102.3911 215° Southwest 255 293 24,000  Climbing Denver Center
08:25AM 43.0214 -102.4358 209° Southwest 256 295 24,000 -60 Level Denver Center
08:26AM 42.9486 -102.4819 205° Southwest 257 296 23,900 -60 Descending Denver Center
08:27AM 42.8853 -102.5186 203° Southwest 257 296 23,900  Level Denver Center
08:28AM 42.8247 -102.5561 204° Southwest 254 292 23,900  Level Denver Center
08:29AM 42.7536 -102.6011 205° Southwest 253 291 24,000  Climbing Denver Center
08:30AM 42.6925 -102.6442 207° Southwest 257 296 24,000  Level Denver Center
08:31AM 42.6303 -102.6908 209° Southwest 262 302 24,000  Level Denver Center
08:32AM 42.5647 -102.7486 213° Southwest 256 295 24,000 -60 Level Denver Center
08:33AM 42.5089 -102.8003 214° Southwest 255 293 23,900  Descending Denver Center
08:34AM 42.4458 -102.8703 219° Southwest 260 299 24,000  Climbing Denver Center
08:35AM 42.3983 -102.9397 227° Southwest 262 302 24,000  Level Denver Center
08:36AM 42.3517 -103.0078 227° Southwest 260 299 24,000 -60 Level Denver Center
08:37AM 42.2958 -103.0847 226° Southwest 258 297 23,900 -60 Descending Denver Center
08:38AM 42.2386 -103.1411 216° Southwest 260 299 23,900  Level Denver Center
08:39AM 42.1781 -103.1861 209° Southwest 260 299 23,900  Level Denver Center
08:40AM 42.1061 -103.2367 208° Southwest 260 299 24,000  Climbing Denver Center
08:41AM 42.0469 -103.2864 212° Southwest 260 299 24,000  Level Denver Center
08:42AM 41.9911 -103.3408 216° Southwest 260 299 24,000  Level Denver Center
08:43AM 41.9364 -103.4231 228° Southwest 263 303 24,000 -60 Level Denver Center
08:44AM 41.8814 -103.4836 219° Southwest 271 312 23,900  Descending Denver Center
08:45AM 41.8150 -103.5008 191° South 262 302 24,000  Climbing Denver Center
08:46AM 41.7336 -103.5050 182° South 262 302 24,000 -60 Level Denver Center
08:47AM 41.6636 -103.5144 186° South 264 304 23,900  Descending Denver Center
08:48AM 41.5917 -103.5233 185° South 268 308 24,000  Climbing Denver Center
08:49AM 41.5092 -103.5378 187° South 267 307 24,000 -180 Level Denver Center
08:50AM 41.4389 -103.5514 188° South 267 307 23,700 -600 Descending Denver Center
08:51AM 41.3494 -103.5692 188° South 285 328 22,800 -900 Descending Denver Center
08:52AM 41.2725 -103.5858 189° South 290 334 21,900 -840 Descending Denver Center
08:53AM 41.1956 -103.5992 187° South 291 335 21,100 -1,140 Descending Denver Center
08:54AM 41.1131 -103.6208 191° South 279 321 19,600 -1,620 Descending Denver Center
08:55AM 41.0353 -103.6297 185° South 282 325 17,900 -1,380 Descending Denver Center
08:56AM 40.9664 -103.6350 183° South 278 320 16,800 -900 Descending Denver Center
08:57AM 40.8792 -103.6169 171° South 265 305 16,100 -840 Descending Denver Center
08:58AM 40.8111 -103.5908 164° South 257 296 15,200 -1,080 Descending Denver Center
08:59AM 40.7475 -103.5653 163° South 242 278 14,000 -1,080 Descending Denver Center
09:00AM 40.6864 -103.5425 164° South 231 266 13,000 -540 Descending Denver Center
09:01AM 40.6394 -103.5972 222° Southwest 237 273 13,000  Level Denver Center
09:02AM 40.6008 -103.6683 234° Southwest 237 273 13,000  Level Denver Center
09:03AM 40.5564 -103.7386 230° Southwest 244 281 13,000  Level Denver Center
09:04AM 40.5053 -103.8128 228° Southwest 261 300 13,100  Climbing Denver Center
09:05AM 40.4489 -103.8944 228° Southwest 275 316 13,100 -60 Level Denver Center
09:06AM 40.3919 -103.9781 228° Southwest 285 328 13,000  Descending Denver Center
09:07AM 40.3381 -104.0500 226° Southwest 277 319 13,100  Climbing Denver Center
09:08AM 40.2808 -104.1150 221° Southwest 273 314 13,000 -60 Descending Denver Center
09:09AM 40.2186 -104.1736 216° Southwest 273 314 13,000  Level Denver Center
09:10AM 40.1578 -104.2456 222° Southwest 271 312 13,000  Level Denver Center
09:11AM 40.1011 -104.3128 222° Southwest 275 316 13,000  Level Denver Center
09:12AM 40.0478 -104.3825 225° Southwest 276 318 13,000  Level Denver Center
09:13AM 39.9858 -104.4392 215° Southwest 272 313 13,100 -300 Climbing Denver Center
09:14AM 39.9139 -104.4744 201° Southwest 275 316 12,400 -960 Descending Denver Center
09:15AM 39.8300 -104.5044 195° South 286 329 11,200 -1,200 Descending Denver Center
09:16AM 39.7558 -104.5078 182° South 267 307 10,000 -1,320 Descending Denver Center
09:17AM 39.6850 -104.5150 184° South 256 295 8,600 -1,020 Descending Denver Center
09:18AM 39.6689 -104.5792 252° West 194 223 8,000 -600 Descending Denver Center
09:19AM 39.7136 -104.6169 327° Northwest 199 229 7,500 -720 Descending Denver Center
09:20AM 39.7656 -104.6414 340° North 186 214 6,600 -840 Descending Denver Center
09:22AM 39.8122 -104.6419 359° North 169 194 5,800 -600 Descending Denver Center
09:23AM 39.8508 -104.6433 358° North 154 177 5,400 -420 Descending Denver Center
09:25AM 39.8500 -104.6667 229° Southwest  Level FlightAware Approximate